createdAt,value
2019-03-01T00:03:12.032Z,10.40
2019-03-01T00:08:03.952Z,9.60
2019-03-01T00:12:55.910Z,11.10
2019-03-01T00:17:48.000Z,9.90
2019-03-01T00:22:39.968Z,8.10
2019-03-01T00:27:31.657Z,10.90
2019-03-01T00:32:23.501Z,10.70
2019-03-01T00:37:15.299Z,10.70
2019-03-01T00:42:06.769Z,10.90
2019-03-01T00:46:57.726Z,10.50
2019-03-01T00:51:49.520Z,11.40
2019-03-01T00:56:41.542Z,7.80
2019-03-01T01:01:33.581Z,8.30
2019-03-01T01:06:25.677Z,9.70
2019-03-01T01:11:17.666Z,9.20
2019-03-01T01:16:09.835Z,6.80
2019-03-01T01:21:00.831Z,8.60
2019-03-01T01:25:52.476Z,8.20
2019-03-01T01:30:44.461Z,9.10
2019-03-01T01:35:38.383Z,8.00
2019-03-01T01:40:29.967Z,10.40
2019-03-01T01:45:21.208Z,12.70
2019-03-01T01:50:12.444Z,14.00
2019-03-01T01:55:03.829Z,13.20
2019-03-01T01:59:55.356Z,13.20
2019-03-01T02:04:48.822Z,14.90
2019-03-01T02:09:40.991Z,13.60
2019-03-01T02:14:33.130Z,12.40
2019-03-01T02:19:25.040Z,13.70
2019-03-01T02:24:16.564Z,13.90
2019-03-01T02:29:08.771Z,17.60
2019-03-01T02:34:00.938Z,17.30
2019-03-01T02:38:53.072Z,21.20
2019-03-01T02:43:44.962Z,11.90
2019-03-01T02:48:36.979Z,12.90
2019-03-01T02:53:28.869Z,11.40
2019-03-01T02:58:19.998Z,10.80
2019-03-01T03:03:11.153Z,14.10
2019-03-01T03:08:02.078Z,14.30
2019-03-01T03:12:52.952Z,19.30
2019-03-01T03:17:43.924Z,15.60
2019-03-01T03:22:35.218Z,13.20
2019-03-01T03:27:25.522Z,10.70
2019-03-01T03:32:19.620Z,7.90
2019-03-01T03:37:10.978Z,8.30
2019-03-01T03:42:02.871Z,13.80
2019-03-01T03:46:54.761Z,6.10
2019-03-01T03:51:46.038Z,8.30
2019-03-01T03:56:38.947Z,7.10
2019-03-01T04:01:29.485Z,7.70
2019-03-01T04:06:20.148Z,7.90
2019-03-01T04:11:12.264Z,9.60
2019-03-01T04:16:04.093Z,10.90
2019-03-01T04:20:56.028Z,8.80
2019-03-01T04:25:46.816Z,7.90
2019-03-01T04:30:38.246Z,11.00
2019-03-01T04:35:29.744Z,10.00
2019-03-01T04:40:22.020Z,10.30
2019-03-01T04:45:13.920Z,10.20
2019-03-01T04:50:05.944Z,14.70
2019-03-01T04:54:57.898Z,14.60
2019-03-01T04:59:49.949Z,12.20
2019-03-01T05:04:41.976Z,10.50
2019-03-01T05:09:34.039Z,11.20
2019-03-01T05:14:26.137Z,12.50
2019-03-01T05:19:18.262Z,12.20
2019-03-01T05:24:10.256Z,13.10
2019-03-01T05:29:02.576Z,13.30
2019-03-01T05:33:55.364Z,14.40
2019-03-01T05:38:47.020Z,15.20
2019-03-01T05:43:38.653Z,11.50
2019-03-01T05:48:30.604Z,14.20
2019-03-01T05:53:22.659Z,13.60
2019-03-01T05:58:16.651Z,15.60
2019-03-01T06:03:08.136Z,16.90
2019-03-01T06:08:00.248Z,22.00
2019-03-01T06:12:52.363Z,15.70
2019-03-01T06:17:44.151Z,17.40
2019-03-01T06:22:36.184Z,18.00
2019-03-01T06:27:28.277Z,20.70
2019-03-01T06:32:20.517Z,26.90
2019-03-01T06:37:12.478Z,30.80
2019-03-01T06:42:04.642Z,24.90
2019-03-01T06:46:56.790Z,31.90
2019-03-01T06:51:48.692Z,38.00
2019-03-01T06:56:40.750Z,45.10
2019-03-01T07:01:32.795Z,67.20
2019-03-01T07:06:24.825Z,62.90
2019-03-01T07:11:17.050Z,65.80
2019-03-01T07:16:08.941Z,69.80
2019-03-01T07:21:01.018Z,86.80
2019-03-01T07:25:54.732Z,74.70
2019-03-01T07:30:46.110Z,85.20
2019-03-01T07:35:37.892Z,74.70
2019-03-01T07:40:29.828Z,89.60
2019-03-01T07:45:21.809Z,74.20
2019-03-01T07:50:13.730Z,80.40
2019-03-01T07:55:05.817Z,90.50
2019-03-01T07:59:58.807Z,89.20
2019-03-01T08:04:49.594Z,85.50
2019-03-01T08:09:44.370Z,78.20
2019-03-01T08:14:35.589Z,94.10
2019-03-01T08:19:26.987Z,99.90
2019-03-01T08:24:17.120Z,111.80
2019-03-01T08:29:07.951Z,97.90
2019-03-01T08:33:58.121Z,86.00
2019-03-01T08:38:49.110Z,72.10
2019-03-01T08:43:39.962Z,56.90
2019-03-01T08:48:37.221Z,57.70
2019-03-01T08:53:27.849Z,72.30
2019-03-01T08:58:18.668Z,45.30
2019-03-01T09:03:09.316Z,52.10
2019-03-01T09:07:59.994Z,64.00
2019-03-01T09:12:51.017Z,59.50
2019-03-01T09:17:41.801Z,76.80
2019-03-01T09:22:34.834Z,72.10
2019-03-01T09:27:26.684Z,66.20
2019-03-01T09:32:19.623Z,73.30
2019-03-01T09:37:10.457Z,67.80
2019-03-01T09:42:04.330Z,69.10
2019-03-01T09:46:58.407Z,69.10
2019-03-01T09:51:51.442Z,61.40
2019-03-01T09:56:42.614Z,72.00
2019-03-01T10:01:35.315Z,82.00
2019-03-01T10:06:25.927Z,63.10
2019-03-01T10:11:16.942Z,81.00
2019-03-01T10:16:08.063Z,59.70
2019-03-01T10:20:58.802Z,67.90
2019-03-01T10:25:49.509Z,65.70
2019-03-01T10:30:41.525Z,71.50
2019-03-01T10:35:32.183Z,71.00
2019-03-01T10:40:23.078Z,57.00
2019-03-01T10:45:14.115Z,68.40
2019-03-01T10:50:05.181Z,73.10
2019-03-01T10:54:56.558Z,66.00
2019-03-01T10:59:48.087Z,62.40
2019-03-01T11:04:39.076Z,55.90
2019-03-01T11:09:29.999Z,48.70
2019-03-01T11:14:21.136Z,42.00
2019-03-01T11:19:12.262Z,45.30
2019-03-01T11:24:03.083Z,55.50
2019-03-01T11:28:53.946Z,57.10
2019-03-01T11:33:44.398Z,48.10
2019-03-01T11:38:35.353Z,49.20
2019-03-01T11:43:26.078Z,43.40
2019-03-01T11:48:16.666Z,28.10
2019-03-01T11:53:07.324Z,40.40
2019-03-01T11:57:58.257Z,35.40
2019-03-01T12:02:49.475Z,23.70
2019-03-01T12:07:40.362Z,21.80
2019-03-01T12:12:30.654Z,19.00
2019-03-01T12:17:21.339Z,23.80
2019-03-01T12:22:17.036Z,24.20
2019-03-01T12:27:06.687Z,23.90
2019-03-01T12:31:57.302Z,27.80
2019-03-01T12:36:48.557Z,28.60
2019-03-01T12:41:39.633Z,29.60
2019-03-01T12:46:30.919Z,26.90
2019-03-01T12:51:22.689Z,26.80
2019-03-01T12:56:13.487Z,25.40
2019-03-01T13:01:05.215Z,18.50
2019-03-01T13:05:56.742Z,24.50
2019-03-01T13:10:53.193Z,18.50
2019-03-01T13:15:45.345Z,17.00
2019-03-01T13:20:41.203Z,9.60
2019-03-01T13:25:32.366Z,11.10
2019-03-01T13:30:23.273Z,12.80
2019-03-01T13:35:13.827Z,15.80
2019-03-01T13:40:04.417Z,17.30
2019-03-01T13:44:55.232Z,13.90
2019-03-01T13:49:46.233Z,14.30
2019-03-01T13:54:37.519Z,23.90
2019-03-01T13:59:33.209Z,17.40
2019-03-01T14:04:30.240Z,14.30
2019-03-01T14:09:23.257Z,13.30
2019-03-01T14:14:17.432Z,12.90
2019-03-01T14:19:08.638Z,13.20
2019-03-01T14:23:59.880Z,11.90
2019-03-01T14:28:50.651Z,14.00
2019-03-01T14:33:41.479Z,14.70
2019-03-01T14:38:32.018Z,17.70
2019-03-01T14:43:24.882Z,14.00
2019-03-01T14:48:15.019Z,16.90
2019-03-01T14:53:06.114Z,17.90
2019-03-01T14:57:57.291Z,14.80
2019-03-01T15:02:49.160Z,16.50
2019-03-01T15:07:39.787Z,15.10
2019-03-01T15:12:30.871Z,18.10
2019-03-01T15:17:22.668Z,20.60
2019-03-01T15:22:14.052Z,13.70
2019-03-01T15:27:05.183Z,15.90
2019-03-01T15:31:56.101Z,14.20
2019-03-01T15:36:47.225Z,17.10
2019-03-01T15:41:39.096Z,20.10
2019-03-01T15:46:32.172Z,20.90
2019-03-01T15:51:23.282Z,12.80
2019-03-01T15:56:14.172Z,15.20
2019-03-01T16:01:10.871Z,17.10
2019-03-01T16:06:01.707Z,18.50
2019-03-01T16:10:52.263Z,9.50
2019-03-01T16:15:43.052Z,14.30
2019-03-01T16:20:34.251Z,12.10
2019-03-01T16:25:24.748Z,8.90
2019-03-01T16:30:17.403Z,12.40
2019-03-01T16:35:08.589Z,11.60
2019-03-01T16:40:00.100Z,11.40
2019-03-01T16:44:52.299Z,10.20
2019-03-01T16:49:43.412Z,9.60
2019-03-01T16:54:33.914Z,13.10
2019-03-01T16:59:25.347Z,8.80
2019-03-01T17:04:18.272Z,4.20
2019-03-01T17:09:11.638Z,6.80
2019-03-01T17:14:05.549Z,7.20
2019-03-01T17:18:56.455Z,7.90
2019-03-01T17:23:47.547Z,3.80
2019-03-01T17:28:38.318Z,4.40
2019-03-01T17:33:29.316Z,9.40
2019-03-01T17:38:19.916Z,6.90
2019-03-01T17:43:11.098Z,6.20
2019-03-01T17:48:01.936Z,6.60
2019-03-01T17:52:53.349Z,4.50
2019-03-01T17:57:46.212Z,5.40
2019-03-01T18:02:36.900Z,4.80
2019-03-01T18:07:28.361Z,5.80
2019-03-01T18:12:20.546Z,9.10
2019-03-01T18:17:11.484Z,4.60
2019-03-01T18:22:04.572Z,4.10
2019-03-01T18:26:55.182Z,5.50
2019-03-01T18:31:46.127Z,4.70
2019-03-01T18:36:37.595Z,10.30
2019-03-01T18:41:28.760Z,4.70
2019-03-01T18:46:20.570Z,9.60
2019-03-01T18:51:10.265Z,5.80
2019-03-01T18:56:01.352Z,5.60
2019-03-01T19:00:51.430Z,6.60
2019-03-01T19:05:42.355Z,7.30
2019-03-01T19:10:33.254Z,7.40
2019-03-01T19:15:26.559Z,8.20
2019-03-01T19:20:20.570Z,8.50
2019-03-01T19:25:10.658Z,9.90
2019-03-01T19:30:02.590Z,7.70
2019-03-01T19:34:54.585Z,9.00
2019-03-01T19:39:50.267Z,7.70
2019-03-01T19:44:40.629Z,6.90
2019-03-01T19:49:31.405Z,8.20
2019-03-01T19:54:21.795Z,8.70
2019-03-01T19:59:12.101Z,10.20
2019-03-01T20:04:03.156Z,8.10
2019-03-01T20:08:54.277Z,13.10
2019-03-01T20:13:45.581Z,12.30
2019-03-01T20:18:36.499Z,9.90
2019-03-01T20:23:29.455Z,14.70
2019-03-01T20:28:20.482Z,8.90
2019-03-01T20:33:10.613Z,14.40
2019-03-01T20:38:04.186Z,10.50
2019-03-01T20:42:55.738Z,8.80
2019-03-01T20:47:55.564Z,13.30
2019-03-01T20:52:46.133Z,8.80
2019-03-01T20:57:37.439Z,8.60
2019-03-01T21:02:28.078Z,7.10
2019-03-01T21:07:19.039Z,6.70
2019-03-01T21:12:09.663Z,5.80
2019-03-01T21:17:02.263Z,7.50
2019-03-01T21:21:52.998Z,4.70
2019-03-01T21:26:44.132Z,4.10
2019-03-01T21:31:40.969Z,5.50
2019-03-01T21:36:31.429Z,5.30
2019-03-01T21:41:24.194Z,4.30
2019-03-01T21:46:17.159Z,4.70
2019-03-01T21:51:08.794Z,3.70
2019-03-01T21:56:04.228Z,3.90
2019-03-01T22:00:58.605Z,6.30
2019-03-01T22:05:55.599Z,4.50
2019-03-01T22:10:46.586Z,6.30
2019-03-01T22:15:38.616Z,5.30
2019-03-01T22:20:30.126Z,5.30
2019-03-01T22:25:21.405Z,8.50
2019-03-01T22:30:13.557Z,5.30
2019-03-01T22:35:08.420Z,5.40
2019-03-01T22:39:59.873Z,5.10
2019-03-01T22:44:51.101Z,6.40
2019-03-01T22:49:43.975Z,12.50
2019-03-01T22:54:34.778Z,8.40
2019-03-01T22:59:25.682Z,12.50
2019-03-01T23:04:17.020Z,10.90
2019-03-01T23:09:10.630Z,11.60
2019-03-01T23:14:01.320Z,16.40
2019-03-01T23:18:56.523Z,12.70
2019-03-01T23:23:46.604Z,10.50
2019-03-01T23:28:40.738Z,11.90
2019-03-01T23:33:34.735Z,11.20
2019-03-01T23:38:26.801Z,10.00
2019-03-01T23:43:18.309Z,8.80
2019-03-01T23:48:10.571Z,11.60
2019-03-01T23:53:03.873Z,11.00
2019-03-01T23:57:55.019Z,8.90
